• Join FlightAware (Why Join?)
  • Login
  • US Flag 
03:32AM EDT


 

Airport Tracker/Info


-or-


 

Live Flight TrackerFlight Track Log ✈ SKW4764 ✈ 09-Sep-2013 ✈ KMSO - KSLC

Flight Track Log - Related Links

Times and Time Zones

All times are in EDT time to prevent confusion due to time zone crossing. See the SKW4764 flight status page for this flight to view local times or setup timezone preferences in your user account.

Time Position Orientation Groundspeed Altitude Reporting Facility
EDT Latitude Longitude Course Direction KTS MPH feet Rate Location/Type
07:46PM 47.0103 -114.2539 200° South 228 262 8,300  Level Salt Lake Center
07:47PM 47.0553 -114.3300 311° West 244 281 10,500 2,100 Climbing Salt Lake Center
07:48PM 46.5574 -113.9536 180° South  Level Estimated
07:48PM 47.0394 -114.4183 255° West 267 307 12,700  Level Salt Lake Center
07:49PM 46.4677 -113.9197 180° South  Level Estimated
07:49PM 46.9803 -114.3525 143° Southeast 289 333 14,100  Level Salt Lake Center
07:50PM 46.3779 -113.8858 180° South  Level Estimated
07:50PM 46.9733 -114.2272 95° East 310 357 15,700  Level Salt Lake Center
07:51PM 46.2882 -113.8521 180° South  Level Estimated
07:51PM 46.9278 -114.1119 120° Southeast 323 372 17,500  Level Salt Lake Center
07:52PM 46.2011 -113.8984 200° South  Level FlightAware Approximate
07:52PM 46.8333 -114.0847 169° South 340 391 18,900  Level Salt Lake Center
07:53PM 46.7389 -114.0833 179° South 348 400 20,200 1,200 Climbing Salt Lake Center
07:55PM 46.6400 -114.0822 180° South 355 409 21,400 1,080 Climbing Salt Lake Center
07:56PM 46.5369 -114.0836 181° South 368 423 22,500 1,020 Climbing Salt Lake Center
07:57PM 46.4322 -114.0828 180° South 376 433 23,600 1,140 Climbing Salt Lake Center
07:58PM 46.3053 -114.0819 180° South 380 437 24,900 1,140 Climbing Salt Lake Center
07:59PM 46.1992 -114.0811 180° South 382 440 26,000 900 Climbing Salt Lake Center
08:00PM 46.0933 -114.0806 180° South 382 440 26,800 720 Climbing Salt Lake Center
08:01PM 45.9853 -114.0803 180° South 387 445 27,600 780 Climbing Salt Lake Center
08:02PM 45.8767 -114.0808 180° South 390 449 28,500 780 Climbing Salt Lake Center
08:03PM 45.7672 -114.0811 180° South 393 452 29,200 660 Climbing Salt Lake Center
08:04PM 45.6561 -114.0825 181° South 398 458 29,900 720 Climbing Salt Lake Center
08:05PM 45.5297 -114.0808 179° South 396 456 30,800 540 Climbing Salt Lake Center
08:06PM 45.4181 -114.0825 181° South 399 459 31,100 60 Climbing Salt Lake Center
08:07PM 45.3047 -114.0817 180° South 404 465 31,000 -60 Descending Salt Lake Center
08:08PM 45.1922 -114.0817 180° South 404 465 31,000  Level Salt Lake Center
08:09PM 45.0817 -114.0814 180° South 398 458 31,000  Level Salt Lake Center
08:10PM 44.9558 -114.0386 166° South 396 456 31,000  Level Salt Lake Center
08:11PM 44.8564 -113.9692 154° Southeast 397 457 31,000  Level Salt Lake Center
08:12PM 44.7611 -113.9036 154° Southeast 396 456 31,000  Level Salt Lake Center
08:13PM 44.6531 -113.8289 154° Southeast 391 450 31,000  Level Salt Lake Center
08:14PM 44.5586 -113.7647 154° Southeast 392 451 31,000  Level Salt Lake Center
08:15PM 44.4478 -113.6894 154° Southeast 394 453 31,000  Level Salt Lake Center
08:16PM 44.3533 -113.6250 154° Southeast 394 453 31,000  Level Salt Lake Center
08:17PM 44.2442 -113.5519 154° Southeast 392 451 31,000  Level Salt Lake Center
08:18PM 44.1508 -113.4886 154° Southeast 390 449 31,000  Level Salt Lake Center
08:19PM 44.0542 -113.4253 155° Southeast 397 457 31,000  Level Salt Lake Center
08:20PM 43.9447 -113.3528 154° Southeast 392 451 31,000  Level Salt Lake Center
08:21PM 43.8522 -113.2906 154° Southeast 390 449 31,000  Level Salt Lake Center
08:22PM 43.7433 -113.2178 154° Southeast 388 447 31,000  Level Salt Lake Center
08:23PM 43.6500 -113.1561 154° Southeast 388 447 31,000  Level Salt Lake Center
08:24PM 43.5411 -113.0847 155° Southeast 388 447 31,000  Level Salt Lake Center
08:25PM 43.4489 -113.0239 154° Southeast 386 444 31,000  Level Salt Lake Center
08:26PM 43.3414 -112.9553 155° Southeast 383 441 31,000  Level Salt Lake Center
08:27PM 43.2494 -112.8939 154° Southeast 384 442 31,000  Level Salt Lake Center
08:28PM 43.1428 -112.8247 155° Southeast 380 437 31,000  Level Salt Lake Center
08:30PM 43.0506 -112.7664 155° Southeast 382 440 31,000  Level Salt Lake Center
08:31PM 42.9586 -112.7075 155° Southeast 383 441 31,000  Level Salt Lake Center
08:32PM 42.8508 -112.6444 157° South 379 436 31,000  Level Salt Lake Center
08:33PM 42.7536 -112.6158 168° South 376 433 31,000  Level Salt Lake Center
08:34PM 42.6428 -112.5833 168° South 372 428 31,000  Level Salt Lake Center
08:35PM 42.5425 -112.5522 167° South 371 427 31,000 -300 Level Salt Lake Center
08:36PM 42.4417 -112.5217 167° South 372 428 30,500 -840 Descending Salt Lake Center
08:37PM 42.3383 -112.4922 168° South 379 436 29,300 -1,500 Descending Salt Lake Center
08:38PM 42.2358 -112.4603 167° South 379 436 27,500 -2,100 Descending Salt Lake Center
08:39PM 42.0933 -112.4567 179° South 432 497 25,100 -2,100 Descending Salt Lake Center
08:40PM 41.9722 -112.4622 182° South 437 503 23,200 -1,800 Descending Salt Lake Center
08:41PM 41.8517 -112.4694 183° South 436 502 21,500 -1,740 Descending Salt Lake Center
08:42PM 41.7150 -112.4731 181° South 427 491 19,500 -1,740 Descending Salt Lake Center
08:43PM 41.6447 -112.4767 182° South 414 476 18,500 -1,560 Descending Salt Lake Center
08:43PM 41.6206 -112.4836 192° South 411 473 18,100 -1,500 Descending Salt Lake Center
08:44PM 41.5400 -112.4803 178° South 385 443 17,000 -1,260 Descending Salt Lake Center
08:44PM 41.5186 -112.4753 170° South 377 434 16,800 -1,200 Descending Salt Lake Center
08:45PM 41.4450 -112.4094 146° Southeast 361 415 15,800 -1,380 Descending Salt Lake Center
08:45PM 41.4158 -112.3958 161° South 357 411 15,400 -1,200 Descending Salt Lake Center
08:46PM 41.3306 -112.3356 152° Southeast 349 402 14,200 -1,200 Descending Salt Lake Center
08:47PM 41.2467 -112.2756 152° Southeast 344 396 13,000 -1,260 Descending Salt Lake Center
08:48PM 41.1917 -112.2322 149° Southeast 340 391 12,100 -1,020 Descending Salt Lake Center
08:48PM 41.1658 -112.2153 154° Southeast 337 388 12,000 -120 Descending Salt Lake Center
08:49PM 41.1167 -112.1781 150° Southeast 335 386 12,000  Level Salt Lake Center
08:50PM 41.0289 -112.1367 160° South 336 387 12,000  Level Salt Lake Center
08:50PM 40.9781 -112.1261 171° South 336 387 12,000  Level Salt Lake Center
08:51PM 40.9303 -112.1161 171° South 336 387 12,000 -420 Level Salt Lake Center
08:52PM 40.8417 -112.1036 174° South 290 334 11,400 -600 Descending Salt Lake Center
08:52PM 40.8122 -112.0986 173° South 274 315 11,100 -420 Descending Salt Lake Center
08:53PM 40.7647 -112.0956 177° South 256 295 11,000 -300 Descending Salt Lake Center
08:53PM 40.7431 -112.0903 170° South 253 291 10,800 -1,200 Descending Salt Lake Center
08:54PM 40.7019 -112.0828 172° South 249 287 9,900 -1,380 Descending Salt Lake Center
08:54PM 40.6764 -112.0728 163° South 246 283 9,400 -1,020 Descending Salt Lake Center
08:55PM 40.6361 -112.0656 172° South 245 282 8,900 -900 Descending Salt Lake Center
08:55PM 40.6231 -112.0372 121° Southeast 228 262 8,500 -1,560 Descending Salt Lake Center
08:56PM 40.6439 -111.9950 57° Northeast 209 241 7,200 -2,220 Descending Salt Lake Center
08:56PM 40.6694 -111.9844 17° North 202 232 6,300 -1,440 Descending Salt Lake Center
08:57PM 40.6897 -111.9878 353° North 203 234 5,900 -900 Descending Salt Lake Center
08:57PM 40.7203 -111.9886 359° North 184 212 5,400 -960 Descending Salt Lake Center
08:58PM 40.7425 -111.9928 352° North 147 169 4,800 -780 Descending Salt Lake Center
08:58PM 40.7589 -111.9933 359° North 146 168 4,600 -480 Descending Salt Lake Center
08:59PM 40.7956 -111.9972 355° North 135 155 4,200 -420 Descending Salt Lake Center